Strona główna
METAR-TAF:

METAR-TAF

Lotnisko :

Port lotniczy Winnipeg

Winnipeg, Manitoba, Kanada

Szerokość geograficzna: 49-54N, Długość geograficzna: 097-14W, wysokość: 239 m

Aktualna obserwacja pogody

Raport powstał 48 minut temu, godzina 22:00 UTC
Wiatr 13 kt od południowo-południowy zachód w porywach dochodzący do 20 kt, zmienny między południe i zachodnio-południowy zachód
Temperatura 27°C
Wilgotność 15%
Ciśnienie 1013 hPa
Widzialność: 24.1 km
Mało chmury na wysokości 26000 ft

METAR: CYWG 212200Z 20013G20KT 180V240 15SM FEW260 27/M02 A2991 RMK CI1 CI TR SLP131 DENSITY ALT 2400FT

czas: 17:48 (22:48 UTC)

Prognoza

Raport powstał 5 godziny i 10 minut temu, godzina 17:38 UTC
Prognoza ważna od 21 godzina 18 UTC do 22 godzina 18 UTC
Wiatr 8 kt od południowo-południowy zachód
Widzialność: 10 km
Mało chmury na wysokości 27000 ft

TAF: CYWG 211738Z 2118/2218 20008KT P6SM FEW270 RMK NXT FCST BY 220000Z

Obserwacja i prognoza pogody dla ponad 4000 lotnisk (raport METAR i TAF).

Dostępne stacje oznaczono żółtymi i czerwonymi punktami na mapie.

Najedź kursorem aby zobaczyć nazwę stacji.

Kliknij aby zobaczyć obserwacje i prognozy pogody.

Aby zmienić mapę: kliknij na zielony przycisk z czarnym krzyżykiem, aby powiększyć; na zielony przycisk z myślnikiem, aby pomniejszyć; na zielone strzałki, aby przejść do map sąsiednich.


METAR-TAF: